Pagrindinis puslapis
METAR-TAF:

METAR-TAF

Oro uostai :

Kemmerer, Vajomingas, Jungtinės Amerikos Valstijos

platuma: 41-49-27N, ilguma: 110-33-25W, Aukštis: 2220 m

Dabartinis oras

Ataskaita buvo paskelbta 21 minutes, ne 20:55 UTC
Vėjas 19 kt iš Vakarų su gūsio iki 24 kt
Temperatūra -1°C
Drėgmė 69%
Slėgis 1020 hPa
Matomumas: 16.1 km
Apsiniaukę ne aukštis 3200 ft

METAR: KEMM 272055Z AUTO 27019G24KT 10SM OVC032 M01/M06 A3012 RMK AO2

Laikas: 14:16 (21:16 UTC)


TAF: trūkstamas

Orai ataskaitas ir orų prognozės (METAR, TAF).

turimą stotys yra geltonos ir raudonos taškus žemėlapyje.

Perkelti pele per norėdami pamatyti stoties vardą.

Tada spustelėkite, norėdami matyti oro stebėjimo ir prognozės.

Norėdami pakeisti žemėlapį: spustelėkite ant žalios mygtukų su juodo kryžiaus žemyn,; žalią mygtuką su brūkšneliu, jei norite nutolinti; arba žalių rodyklių gretimoms žemėlapius.


METAR-TAF: